Stantonsburg, North Carolina
Current Conditions -  °F | °C
As of 11:15 AM on Thursday 27 Nov 2014 (Local Time) from KGWW Reporting Station
Broken Clouds Broken Clouds  
Wind Chill: 48°   Ceiling: 1500
Heat Index: 48°   Visibility: 10mi
Dew Point: 41°   Wind: 0mph
Humidity: 78%   Direction: NA
Pressure: 30"   Gusts: NA
Location:  35.61°N, 77.82°W
Report Text: KGWW 271615Z AUTO 00000KT 10SM BKN015 09/05 A3000 RMK AO2 T00870051
Loading
Personal Weather Stations






























Interactive Weather Map New forecast layout! Learn more

10-Day Weather Forecast

Advertisements
Track Severe Weather on mobile